Time;durP1;ratioP1;P1;durP2;ratioP2;P2;SDS_P1;SDS_P2;PMS_P1;PMS_P2;Temp;Humidity;BMP_temperature;BMP_pressure;BME280_temperature;BME280_humidity;BME280_pressure;Samples;Min_cycle;Max_cycle;Signal;HPM_P1;HPM_P2
2023/03/21 00:00:37;;;;;;;14.70;13.10;;;7.80;99.90;;;;;;5042531;28;20187;-54
2023/03/21 00:03:03;;;;;;;15.63;13.30;;;7.80;99.90;;;;;;5041947;28;20730;-53
2023/03/21 00:05:30;;;;;;;17.30;13.23;;;7.80;99.90;;;;;;5043056;28;20287;-52
2023/03/21 00:07:57;;;;;;;15.60;12.83;;;7.80;99.90;;;;;;5055475;28;20212;-52
2023/03/21 00:10:24;;;;;;;17.17;13.47;;;7.80;99.90;;;;;;5037079;28;20198;-55
2023/03/21 00:12:57;;;;;;;15.50;13.67;;;7.80;99.90;;;;;;5054082;28;20285;-55
2023/03/21 00:15:25;;;;;;;16.80;13.43;;;7.80;99.90;;;;;;5039172;28;20248;-55
2023/03/21 00:17:57;;;;;;;19.83;14.87;;;7.80;99.90;;;;;;5036393;28;20217;-55
2023/03/21 00:20:23;;;;;;;17.70;14.03;;;7.80;99.90;;;;;;5043333;28;20226;-55
2023/03/21 00:22:51;;;;;;;16.70;14.77;;;7.80;99.90;;;;;;5053954;28;20224;-50
2023/03/21 00:25:17;;;;;;;16.57;13.73;;;7.80;99.90;;;;;;5052284;28;20684;-54
2023/03/21 00:27:44;;;;;;;16.13;13.53;;;7.80;99.90;;;;;;5045111;28;20205;-53
2023/03/21 00:30:12;;;;;;;19.90;13.93;;;7.80;99.90;;;;;;5042178;28;20220;-53
2023/03/21 00:32:41;;;;;;;17.67;14.33;;;7.80;99.90;;;;;;5030021;28;20264;-53
2023/03/21 00:35:10;;;;;;;15.90;14.17;;;7.90;99.90;;;;;;5053730;28;20242;-53
2023/03/21 00:37:36;;;;;;;17.13;14.50;;;7.90;99.90;;;;;;5040348;28;20218;-52
2023/03/21 00:40:08;;;;;;;18.33;15.03;;;7.80;99.90;;;;;;5044053;28;20226;-53
2023/03/21 00:42:35;;;;;;;18.63;13.90;;;7.80;99.90;;;;;;5039512;28;20218;-54
2023/03/21 00:45:05;;;;;;;16.97;14.20;;;7.80;99.90;;;;;;5054300;28;20192;-51
2023/03/21 00:47:32;;;;;;;17.97;14.37;;;7.90;99.90;;;;;;5025788;28;20226;-51
2023/03/21 00:49:59;;;;;;;18.50;15.00;;;7.90;99.90;;;;;;5055083;28;20234;-55
2023/03/21 00:52:27;;;;;;;17.70;14.30;;;7.90;99.90;;;;;;5046573;28;20198;-54
2023/03/21 00:54:54;;;;;;;17.70;14.57;;;7.90;99.90;;;;;;5055062;28;20732;-54
2023/03/21 00:57:20;;;;;;;17.37;14.40;;;7.90;99.90;;;;;;5044178;28;20219;-54
2023/03/21 00:59:48;;;;;;;20.27;15.60;;;7.90;99.90;;;;;;5053506;28;20670;-55
2023/03/21 01:02:21;;;;;;;18.63;14.63;;;7.90;99.90;;;;;;5047854;28;20207;-54
2023/03/21 01:04:49;;;;;;;19.40;15.00;;;7.90;99.90;;;;;;5031106;28;20207;-52
2023/03/21 01:07:15;;;;;;;21.90;15.93;;;7.90;99.90;;;;;;5049912;28;20292;-53
2023/03/21 01:09:45;;;;;;;21.17;16.27;;;7.90;99.90;;;;;;5048187;28;20187;-57
2023/03/21 01:12:11;;;;;;;18.67;14.70;;;7.90;99.90;;;;;;5048680;28;20670;-54
2023/03/21 01:14:39;;;;;;;21.87;16.10;;;7.90;99.90;;;;;;5045702;28;20248;-50
2023/03/21 01:17:06;;;;;;;21.13;15.97;;;7.90;99.90;;;;;;5048633;28;20223;-51
2023/03/21 01:19:33;;;;;;;22.10;16.87;;;7.90;99.90;;;;;;5039963;28;20211;-49
2023/03/21 01:22:00;;;;;;;22.40;16.23;;;7.90;99.90;;;;;;5052844;28;20222;-49
2023/03/21 01:24:26;;;;;;;20.00;15.87;;;7.90;99.90;;;;;;5047740;28;20210;-52
2023/03/21 01:26:55;;;;;;;22.00;17.00;;;7.90;99.90;;;;;;5047462;28;20220;-48
2023/03/21 01:29:21;;;;;;;23.17;16.83;;;7.90;99.90;;;;;;5034519;28;20434;-53
2023/03/21 01:31:49;;;;;;;26.40;18.80;;;7.90;99.90;;;;;;5054153;28;20234;-51
2023/03/21 01:34:16;;;;;;;24.97;17.07;;;7.90;99.90;;;;;;5050367;28;20889;-50
2023/03/21 01:36:43;;;;;;;26.23;18.37;;;7.90;99.90;;;;;;5040343;28;20292;-50
2023/03/21 01:39:14;;;;;;;26.33;18.43;;;7.90;99.90;;;;;;5047184;28;20210;-53
2023/03/21 01:41:42;;;;;;;21.73;17.27;;;8.00;99.90;;;;;;5047076;28;20202;-53
2023/03/21 01:44:18;;;;;;;24.07;17.30;;;7.90;99.90;;;;;;5052528;28;21040;-54
2023/03/21 01:46:48;;;;;;;25.23;18.47;;;7.90;99.90;;;;;;5045543;28;20636;-55
2023/03/21 01:49:38;;;;;;;25.37;17.97;;;7.90;99.90;;;;;;5047887;28;20222;-55
2023/03/21 01:52:17;;;;;;;25.20;17.83;;;7.90;99.90;;;;;;5029134;28;20690;-56
2023/03/21 01:54:47;;;;;;;26.17;19.07;;;7.90;99.90;;;;;;5049217;28;20273;-53
2023/03/21 01:57:20;;;;;;;26.63;19.20;;;7.90;99.90;;;;;;5041640;28;20565;-54
2023/03/21 01:59:53;;;;;;;27.63;18.97;;;7.90;99.90;;;;;;5047888;28;20287;-54
2023/03/21 02:02:50;;;;;;;30.23;19.00;;;8.00;99.90;;;;;;5044732;28;20219;-52
2023/03/21 02:05:40;;;;;;;27.43;18.83;;;8.00;99.90;;;;;;5044151;28;20291;-53
2023/03/21 02:08:07;;;;;;;27.13;20.53;;;8.00;99.90;;;;;;5033624;28;20211;-51
2023/03/21 02:10:35;;;;;;;28.33;19.60;;;8.00;99.90;;;;;;5046708;28;20293;-53
2023/03/21 02:13:08;;;;;;;26.40;19.70;;;8.00;99.90;;;;;;5056103;28;20197;-50
2023/03/21 02:15:38;;;;;;;27.10;19.97;;;8.00;99.90;;;;;;5043275;28;20676;-55
2023/03/21 02:18:26;;;;;;;25.77;18.83;;;8.00;99.90;;;;;;5048814;28;20610;-51
2023/03/21 02:21:10;;;;;;;28.73;20.17;;;8.00;99.90;;;;;;5043968;28;20241;-54
2023/03/21 02:24:26;;;;;;;28.13;20.57;;;8.00;99.90;;;;;;5038206;28;20253;-52
2023/03/21 02:27:08;;;;;;;28.33;20.53;;;8.00;99.90;;;;;;5043574;28;20212;-53
2023/03/21 02:30:04;;;;;;;32.13;19.77;;;8.00;99.90;;;;;;5049037;28;20202;-55
2023/03/21 02:32:47;;;;;;;29.47;20.50;;;8.00;99.90;;;;;;5053225;28;20290;-54
2023/03/21 02:35:28;;;;;;;26.83;20.43;;;8.10;99.90;;;;;;5044539;28;20618;-51
2023/03/21 02:38:00;;;;;;;29.50;20.97;;;8.00;99.90;;;;;;5028750;28;20225;-51
2023/03/21 02:40:32;;;;;;;31.10;21.90;;;8.00;99.90;;;;;;5050493;28;20280;-50
2023/03/21 02:43:07;;;;;;;30.57;21.43;;;8.00;99.90;;;;;;5049663;28;20582;-50
2023/03/21 02:45:42;;;;;;;30.90;21.67;;;8.00;99.90;;;;;;5039264;28;20198;-52
2023/03/21 02:48:13;;;;;;;31.97;20.87;;;8.00;99.90;;;;;;5044396;28;20206;-52
2023/03/21 02:50:43;;;;;;;30.03;20.20;;;8.00;99.90;;;;;;5041643;28;20207;-50
2023/03/21 02:53:17;;;;;;;30.67;21.40;;;8.00;99.90;;;;;;5049990;28;20576;-51
2023/03/21 02:55:47;;;;;;;32.97;22.17;;;8.00;99.90;;;;;;5038399;28;20281;-55
2023/03/21 02:58:18;;;;;;;30.67;21.63;;;8.00;99.90;;;;;;5047352;28;20226;-50
2023/03/21 03:00:54;;;;;;;29.83;21.23;;;8.10;99.90;;;;;;5054696;28;20344;-50
2023/03/21 03:03:29;;;;;;;34.17;22.20;;;8.10;99.90;;;;;;5054689;28;20238;-52
2023/03/21 03:05:58;;;;;;;30.77;21.37;;;8.00;99.90;;;;;;5049014;28;20219;-55
2023/03/21 03:08:35;;;;;;;32.30;21.47;;;8.10;99.90;;;;;;5052470;28;20206;-53
2023/03/21 03:11:15;;;;;;;32.63;22.13;;;8.10;99.90;;;;;;5043056;28;20213;-52
2023/03/21 03:14:23;;;;;;;31.00;21.40;;;8.10;99.90;;;;;;5049156;28;20855;-53
2023/03/21 03:17:01;;;;;;;34.57;22.40;;;8.10;99.90;;;;;;5039288;28;20223;-54
2023/03/21 03:19:32;;;;;;;31.73;22.00;;;8.10;99.90;;;;;;5052150;28;20240;-53
2023/03/21 03:22:05;;;;;;;33.70;22.73;;;8.10;99.90;;;;;;5046614;28;20203;-53
2023/03/21 03:24:39;;;;;;;34.30;23.80;;;8.00;99.90;;;;;;5040806;28;20223;-54
2023/03/21 03:27:10;;;;;;;33.90;22.97;;;8.00;99.90;;;;;;5055165;28;20756;-54
2023/03/21 03:29:40;;;;;;;32.73;22.50;;;8.10;99.90;;;;;;5037408;28;20214;-53
2023/03/21 03:32:12;;;;;;;35.53;24.00;;;8.10;99.90;;;;;;5046072;28;20203;-55
2023/03/21 03:34:48;;;;;;;38.03;23.47;;;8.10;99.90;;;;;;5061420;28;20293;-54
2023/03/21 03:37:21;;;;;;;32.53;23.33;;;8.10;99.90;;;;;;5054257;28;20256;-55
2023/03/21 03:39:57;;;;;;;37.00;23.27;;;8.10;99.90;;;;;;5062464;28;20289;-50
2023/03/21 03:42:30;;;;;;;35.97;24.63;;;8.10;99.90;;;;;;5030863;28;20294;-50
2023/03/21 03:45:05;;;;;;;36.23;23.93;;;8.10;99.90;;;;;;5059690;28;20229;-54
2023/03/21 03:47:38;;;;;;;39.40;25.40;;;8.10;99.90;;;;;;5043263;28;20219;-50
2023/03/21 03:50:11;;;;;;;36.73;25.70;;;8.10;99.90;;;;;;5048050;28;20203;-54
2023/03/21 03:52:44;;;;;;;35.00;23.70;;;8.10;99.90;;;;;;5044341;28;20202;-51
2023/03/21 03:55:17;;;;;;;37.40;24.70;;;8.10;99.90;;;;;;5053017;28;20245;-52
2023/03/21 03:57:46;;;;;;;39.97;24.93;;;8.10;99.90;;;;;;5044820;28;20289;-49
2023/03/21 04:00:16;;;;;;;40.07;25.97;;;8.10;99.90;;;;;;5045174;28;20199;-54
2023/03/21 04:03:05;;;;;;;36.80;23.90;;;8.10;99.90;;;;;;5042163;28;20260;-54
2023/03/21 04:05:32;;;;;;;38.07;25.53;;;8.10;99.90;;;;;;5040225;28;20203;-50
2023/03/21 04:08:00;;;;;;;37.50;26.27;;;8.10;99.90;;;;;;5042833;28;20203;-55
2023/03/21 04:10:36;;;;;;;36.70;24.97;;;8.10;99.90;;;;;;5040381;28;20946;-54
2023/03/21 04:13:03;;;;;;;43.33;27.53;;;8.20;99.90;;;;;;5031737;28;20203;-54
2023/03/21 04:15:35;;;;;;;41.07;25.50;;;8.10;99.90;;;;;;5043200;28;20279;-53
2023/03/21 04:18:10;;;;;;;43.73;26.70;;;8.20;99.90;;;;;;5048214;28;20231;-55
2023/03/21 04:20:37;;;;;;;38.37;24.97;;;8.10;99.90;;;;;;5044817;28;20942;-50
2023/03/21 04:23:05;;;;;;;42.63;26.47;;;8.10;99.90;;;;;;5046229;28;20210;-56
2023/03/21 04:25:33;;;;;;;43.87;26.50;;;8.20;99.90;;;;;;5058506;28;20220;-51
2023/03/21 04:28:03;;;;;;;41.80;25.00;;;8.20;99.90;;;;;;5061752;28;20274;-51
2023/03/21 04:30:44;;;;;;;39.10;25.00;;;8.10;99.90;;;;;;5046404;28;20211;-52
2023/03/21 04:33:17;;;;;;;41.13;25.80;;;8.20;99.90;;;;;;5043290;28;20372;-55
2023/03/21 04:35:54;;;;;;;42.80;25.97;;;8.20;99.90;;;;;;5046224;28;20253;-53
2023/03/21 04:38:25;;;;;;;41.60;26.23;;;8.20;99.90;;;;;;5040357;28;20287;-56
2023/03/21 04:40:52;;;;;;;38.37;23.87;;;8.20;99.90;;;;;;5053578;28;20206;-55
2023/03/21 04:43:20;;;;;;;37.47;24.37;;;8.20;99.90;;;;;;5049111;28;20952;-53
2023/03/21 04:45:47;;;;;;;38.70;24.90;;;8.20;99.90;;;;;;5036825;28;20297;-55
2023/03/21 04:48:13;;;;;;;41.60;25.07;;;8.20;99.90;;;;;;5042029;28;20269;-56
2023/03/21 04:50:40;;;;;;;38.33;25.10;;;8.20;99.90;;;;;;5049512;28;20198;-55
2023/03/21 04:53:07;;;;;;;38.37;25.37;;;8.20;99.90;;;;;;5047571;28;20222;-52
2023/03/21 04:55:35;;;;;;;34.90;24.73;;;8.20;99.90;;;;;;5045035;28;20290;-54
2023/03/21 04:58:03;;;;;;;36.30;24.03;;;8.20;99.90;;;;;;5057444;28;20209;-55
2023/03/21 05:00:36;;;;;;;40.40;24.57;;;8.20;99.90;;;;;;5036297;28;20203;-54
2023/03/21 05:03:03;;;;;;;41.00;23.97;;;8.20;99.90;;;;;;5052510;28;20974;-55
2023/03/21 05:05:30;;;;;;;38.47;24.50;;;8.20;99.90;;;;;;5042534;28;20242;-52
2023/03/21 05:07:59;;;;;;;38.30;25.93;;;8.20;99.90;;;;;;5047806;28;20210;-53
2023/03/21 05:10:26;;;;;;;39.13;24.73;;;8.20;99.90;;;;;;5052005;28;20210;-50
2023/03/21 05:12:53;;;;;;;39.50;24.73;;;8.20;99.90;;;;;;5041910;28;20199;-50
2023/03/21 05:15:20;;;;;;;40.80;25.70;;;8.30;99.90;;;;;;5044408;28;20207;-51
2023/03/21 05:17:49;;;;;;;36.03;24.90;;;8.30;99.90;;;;;;5035936;28;20929;-52
2023/03/21 05:20:18;;;;;;;37.93;23.53;;;8.30;99.90;;;;;;5058135;28;20206;-55
2023/03/21 05:22:48;;;;;;;34.50;24.10;;;8.30;99.90;;;;;;5050601;28;20260;-56
2023/03/21 05:25:16;;;;;;;38.33;25.10;;;8.30;99.90;;;;;;5046451;28;20252;-53
2023/03/21 05:28:06;;;;;;;38.87;24.33;;;8.30;99.90;;;;;;5057283;28;20202;-51
2023/03/21 05:30:33;;;;;;;34.97;22.87;;;8.30;99.90;;;;;;5065083;28;20203;-51
2023/03/21 05:33:03;;;;;;;38.23;25.13;;;8.30;99.90;;;;;;5043446;28;20252;-52
2023/03/21 05:35:31;;;;;;;40.07;25.47;;;8.30;99.90;;;;;;5049022;28;20735;-56
2023/03/21 05:38:02;;;;;;;39.17;24.07;;;8.30;99.90;;;;;;5044844;28;20195;-54
2023/03/21 05:40:33;;;;;;;36.27;25.23;;;8.30;99.90;;;;;;5040041;28;20264;-56
2023/03/21 05:43:01;;;;;;;35.83;25.27;;;8.30;99.90;;;;;;5048553;28;20204;-56
2023/03/21 05:45:28;;;;;;;37.27;24.73;;;8.30;99.90;;;;;;5059788;28;20226;-54
2023/03/21 05:47:56;;;;;;;36.00;24.77;;;8.40;99.90;;;;;;5040058;28;20384;-52
2023/03/21 05:50:28;;;;;;;37.03;25.37;;;8.30;99.90;;;;;;5047476;28;20199;-51
2023/03/21 05:53:12;;;;;;;37.53;24.00;;;8.40;99.90;;;;;;5042660;28;23134;-53
2023/03/21 05:55:39;;;;;;;36.97;24.60;;;8.40;99.90;;;;;;5051853;28;20198;-53
2023/03/21 05:58:11;;;;;;;39.63;25.63;;;8.40;99.90;;;;;;5041865;28;20210;-51
2023/03/21 06:00:39;;;;;;;39.03;25.20;;;8.40;99.90;;;;;;5054969;28;20254;-52
2023/03/21 06:03:21;;;;;;;45.80;28.00;;;8.40;99.90;;;;;;5032647;28;21316;-54
2023/03/21 06:06:11;;;;;;;43.43;27.07;;;8.40;99.90;;;;;;5058087;28;20571;-55
2023/03/21 06:08:45;;;;;;;42.80;28.40;;;8.50;99.90;;;;;;5050119;28;20210;-51
2023/03/21 06:11:22;;;;;;;46.00;29.10;;;8.50;99.90;;;;;;5044986;28;20188;-49
2023/03/21 06:13:51;;;;;;;45.93;29.33;;;8.50;99.90;;;;;;5044760;28;20207;-51
2023/03/21 06:16:21;;;;;;;45.30;29.30;;;8.50;99.90;;;;;;5043312;28;20277;-50
2023/03/21 06:18:48;;;;;;;42.83;28.13;;;8.60;99.90;;;;;;5040857;28;20207;-47
2023/03/21 06:21:25;;;;;;;43.90;28.70;;;8.60;99.90;;;;;;5045356;28;20332;-51
2023/03/21 06:23:52;;;;;;;41.50;27.23;;;8.60;99.90;;;;;;5051964;28;20187;-52
2023/03/21 06:26:22;;;;;;;44.53;27.90;;;8.60;99.90;;;;;;5052533;28;20219;-48
2023/03/21 06:28:49;;;;;;;40.50;28.03;;;8.60;99.90;;;;;;5048616;28;20203;-52
2023/03/21 06:31:17;;;;;;;38.47;25.80;;;8.60;99.90;;;;;;5038689;28;20222;-51
2023/03/21 06:33:43;;;;;;;41.73;26.93;;;8.60;99.90;;;;;;5051464;28;20230;-57
2023/03/21 06:36:11;;;;;;;38.80;26.90;;;8.60;99.90;;;;;;5020844;28;20211;-56
2023/03/21 06:38:39;;;;;;;41.90;28.00;;;8.60;99.90;;;;;;5051141;28;20570;-53
2023/03/21 06:41:07;;;;;;;37.73;26.40;;;8.60;99.90;;;;;;5037761;28;20203;-51
2023/03/21 06:43:40;;;;;;;38.43;27.17;;;8.60;99.90;;;;;;5056656;28;20213;-52
2023/03/21 06:46:08;;;;;;;40.10;26.83;;;8.60;99.90;;;;;;5050660;28;20331;-52
2023/03/21 06:48:36;;;;;;;44.47;30.60;;;8.60;99.90;;;;;;5052729;28;20301;-49
2023/03/21 06:51:04;;;;;;;85.20;47.50;;;8.70;99.90;;;;;;5043198;28;20195;-51
2023/03/21 06:53:33;;;;;;;37.63;26.33;;;8.60;99.90;;;;;;5050177;28;20193;-50
2023/03/21 06:56:17;;;;;;;41.17;26.67;;;8.60;99.90;;;;;;5058225;28;20225;-49
2023/03/21 06:58:46;;;;;;;40.47;26.20;;;8.60;99.90;;;;;;5054351;28;20230;-54
2023/03/21 07:01:26;;;;;;;40.10;26.00;;;8.70;99.90;;;;;;5046751;28;20286;-51
2023/03/21 07:04:03;;;;;;;39.63;26.67;;;8.70;99.90;;;;;;5054293;28;20883;-51
2023/03/21 07:06:31;;;;;;;39.73;27.03;;;8.70;99.90;;;;;;5043475;28;20222;-49
2023/03/21 07:08:59;;;;;;;41.77;28.33;;;8.70;99.90;;;;;;5049854;28;20206;-50
2023/03/21 07:11:34;;;;;;;37.37;27.17;;;8.70;99.90;;;;;;5052066;28;20252;-49
2023/03/21 07:14:02;;;;;;;40.07;27.80;;;8.70;99.90;;;;;;5049510;28;20234;-51
2023/03/21 07:16:30;;;;;;;41.17;28.60;;;8.70;99.90;;;;;;5056823;28;20343;-50
2023/03/21 07:19:19;;;;;;;41.83;27.77;;;8.80;99.90;;;;;;5053580;28;20240;-49
2023/03/21 07:21:46;;;;;;;43.57;30.13;;;8.80;99.90;;;;;;5037232;28;20199;-48
2023/03/21 07:24:13;;;;;;;43.73;30.03;;;8.80;99.90;;;;;;5051053;28;20195;-51
2023/03/21 07:26:41;;;;;;;47.27;29.40;;;8.80;99.90;;;;;;5048960;28;20219;-52
2023/03/21 07:29:08;;;;;;;40.13;28.37;;;8.80;99.90;;;;;;5047866;28;20284;-54
2023/03/21 07:31:35;;;;;;;45.53;29.80;;;8.80;99.90;;;;;;5050388;28;20202;-54
2023/03/21 07:34:02;;;;;;;48.13;29.20;;;8.80;99.90;;;;;;5051880;28;20207;-53
2023/03/21 07:36:29;;;;;;;42.90;29.87;;;8.80;99.90;;;;;;5054601;28;20210;-50
2023/03/21 07:38:56;;;;;;;46.37;29.57;;;8.80;99.90;;;;;;5042371;28;20384;-54
2023/03/21 07:41:24;;;;;;;56.87;35.70;;;8.90;99.90;;;;;;5056997;28;20207;-53
2023/03/21 07:43:53;;;;;;;53.80;34.10;;;8.90;99.90;;;;;;5051548;28;20256;-53
2023/03/21 07:46:20;;;;;;;45.10;30.87;;;8.90;99.90;;;;;;5039004;28;20223;-53
2023/03/21 07:48:48;;;;;;;45.73;29.93;;;8.90;99.90;;;;;;5050181;28;20190;-54
2023/03/21 07:51:16;;;;;;;44.97;30.43;;;8.90;99.90;;;;;;5047153;28;20749;-53
2023/03/21 07:54:04;;;;;;;47.23;29.53;;;8.90;99.90;;;;;;5039633;28;20287;-52
2023/03/21 07:56:31;;;;;;;45.07;29.73;;;8.90;99.90;;;;;;5059641;28;20206;-52
2023/03/21 07:58:59;;;;;;;43.77;29.10;;;9.00;99.90;;;;;;5045777;28;20206;-54
2023/03/21 08:01:26;;;;;;;46.83;30.67;;;9.00;99.90;;;;;;5056299;28;20656;-53
2023/03/21 08:03:53;;;;;;;46.60;30.50;;;9.00;99.90;;;;;;5050279;28;20199;-54
2023/03/21 08:06:27;;;;;;;49.67;32.10;;;9.00;99.90;;;;;;5055122;28;20281;-52
2023/03/21 08:08:53;;;;;;;45.67;29.80;;;9.00;99.90;;;;;;5039619;28;20217;-50
2023/03/21 08:11:21;;;;;;;50.23;31.17;;;9.00;99.90;;;;;;5057022;28;20207;-52
2023/03/21 08:13:48;;;;;;;46.57;31.30;;;9.10;99.90;;;;;;5044107;28;20203;-55
2023/03/21 08:16:16;;;;;;;47.77;32.13;;;9.00;99.90;;;;;;5053318;28;20310;-52
2023/03/21 08:18:43;;;;;;;49.77;32.20;;;9.00;99.90;;;;;;5049798;28;20256;-51
2023/03/21 08:21:10;;;;;;;46.07;30.77;;;9.10;99.90;;;;;;5052977;28;20207;-53
2023/03/21 08:23:37;;;;;;;47.87;30.30;;;9.10;99.90;;;;;;5050686;28;20210;-54
2023/03/21 08:26:04;;;;;;;48.57;30.07;;;9.10;99.90;;;;;;5044224;28;20222;-55
2023/03/21 08:28:31;;;;;;;48.23;30.73;;;9.10;99.90;;;;;;5050777;28;20218;-53
2023/03/21 08:30:58;;;;;;;41.50;28.63;;;9.10;99.90;;;;;;5053501;28;20200;-55
2023/03/21 08:33:26;;;;;;;47.50;29.43;;;9.10;99.90;;;;;;5054980;28;20191;-51
2023/03/21 08:35:53;;;;;;;47.93;30.70;;;9.10;99.90;;;;;;5038647;28;20422;-56
2023/03/21 08:38:20;;;;;;;50.10;33.07;;;9.20;99.90;;;;;;5056077;28;20194;-49
2023/03/21 08:40:47;;;;;;;45.23;30.90;;;9.20;99.90;;;;;;5034117;28;20202;-53
2023/03/21 08:43:13;;;;;;;53.37;32.43;;;9.20;99.90;;;;;;5056914;28;20211;-49
2023/03/21 08:45:41;;;;;;;47.60;31.17;;;9.20;99.90;;;;;;5049471;28;20215;-51
2023/03/21 08:48:07;;;;;;;48.97;31.73;;;9.30;99.90;;;;;;5045965;28;20199;-49
2023/03/21 08:50:36;;;;;;;53.83;31.70;;;9.30;99.90;;;;;;5045954;28;20202;-51
2023/03/21 08:53:02;;;;;;;63.40;33.87;;;9.40;99.90;;;;;;5051782;28;20944;-50
2023/03/21 08:55:30;;;;;;;58.20;33.17;;;9.30;99.90;;;;;;5050060;28;20200;-50
2023/03/21 08:57:57;;;;;;;50.37;31.43;;;9.40;99.90;;;;;;5039023;28;20203;-52
2023/03/21 09:00:26;;;;;;;51.30;32.23;;;9.40;99.90;;;;;;5047331;28;20210;-48
2023/03/21 09:02:53;;;;;;;51.33;32.23;;;9.40;99.90;;;;;;5046956;28;20994;-49
2023/03/21 09:05:21;;;;;;;47.00;29.87;;;9.40;99.90;;;;;;5048767;28;20383;-49
2023/03/21 09:07:49;;;;;;;52.00;32.60;;;9.40;99.90;;;;;;5044245;28;20449;-52
2023/03/21 09:10:20;;;;;;;51.33;31.53;;;9.40;99.90;;;;;;5050849;28;20737;-50
2023/03/21 09:12:47;;;;;;;53.27;34.97;;;9.50;99.90;;;;;;5033224;28;20234;-53
2023/03/21 09:15:14;;;;;;;59.17;34.87;;;9.40;99.90;;;;;;5055154;28;20206;-52
2023/03/21 09:17:42;;;;;;;51.97;30.80;;;9.50;99.90;;;;;;5043348;28;20265;-56
2023/03/21 09:20:16;;;;;;;49.90;30.67;;;9.50;99.90;;;;;;5048499;28;20282;-50
2023/03/21 09:22:43;;;;;;;51.63;29.63;;;9.50;99.90;;;;;;5033555;28;20209;-53
2023/03/21 09:25:12;;;;;;;50.00;31.10;;;9.50;99.90;;;;;;5052559;28;20210;-51
2023/03/21 09:27:38;;;;;;;46.07;30.63;;;9.50;99.90;;;;;;5045664;28;20226;-56
2023/03/21 09:30:07;;;;;;;47.83;29.70;;;9.50;99.90;;;;;;5034845;28;20207;-53
2023/03/21 09:32:34;;;;;;;46.73;30.57;;;9.50;99.90;;;;;;5043796;28;20207;-56
2023/03/21 09:35:01;;;;;;;51.33;30.03;;;9.50;99.90;;;;;;5045332;28;20196;-50
2023/03/21 09:37:27;;;;;;;51.50;29.80;;;9.50;99.90;;;;;;5045900;28;20628;-57
2023/03/21 09:39:57;;;;;;;46.13;28.07;;;9.50;99.90;;;;;;5046064;28;20929;-49
2023/03/21 09:42:36;;;;;;;50.43;29.53;;;9.60;99.90;;;;;;5061374;28;20846;-56
2023/03/21 09:45:12;;;;;;;49.53;30.40;;;9.60;99.90;;;;;;5039586;28;20212;-51
2023/03/21 09:47:48;;;;;;;46.80;28.90;;;9.60;99.90;;;;;;5034835;28;20309;-57
2023/03/21 09:50:18;;;;;;;60.23;31.87;;;9.60;99.90;;;;;;5044455;28;20199;-51
2023/03/21 09:52:49;;;;;;;49.43;28.13;;;9.60;99.90;;;;;;5047170;28;20198;-48
2023/03/21 09:55:20;;;;;;;52.37;29.30;;;9.60;99.90;;;;;;5046310;28;20206;-54
2023/03/21 09:57:51;;;;;;;52.83;27.63;;;9.60;99.90;;;;;;5039931;28;20229;-51
2023/03/21 10:00:24;;;;;;;46.60;28.87;;;9.70;99.90;;;;;;5035686;28;20701;-49
2023/03/21 10:02:56;;;;;;;43.90;27.53;;;9.70;99.90;;;;;;5045410;28;20209;-49
2023/03/21 10:05:26;;;;;;;51.10;27.13;;;9.80;99.90;;;;;;5057997;28;20203;-56
2023/03/21 10:07:57;;;;;;;44.40;27.27;;;9.70;99.90;;;;;;5048194;28;20195;-50
2023/03/21 10:10:27;;;;;;;45.83;27.17;;;9.80;99.90;;;;;;5048675;28;20199;-55
2023/03/21 10:12:56;;;;;;;44.23;26.93;;;9.80;99.90;;;;;;5049227;28;20225;-50
2023/03/21 10:15:25;;;;;;;50.13;30.23;;;9.90;99.90;;;;;;5044860;28;20286;-55
2023/03/21 10:18:00;;;;;;;44.03;26.77;;;9.90;99.90;;;;;;5049370;28;20190;-53
2023/03/21 10:20:30;;;;;;;41.53;24.93;;;10.00;99.90;;;;;;5053904;28;20201;-56
2023/03/21 10:23:00;;;;;;;48.77;26.57;;;10.00;99.90;;;;;;5049266;28;20278;-51
2023/03/21 10:25:31;;;;;;;41.53;24.87;;;10.00;99.90;;;;;;5047612;28;20693;-54
2023/03/21 10:28:01;;;;;;;34.40;23.83;;;10.00;99.90;;;;;;5050383;28;20199;-49
2023/03/21 10:30:36;;;;;;;38.43;23.60;;;10.00;99.90;;;;;;5046440;28;20261;-56
2023/03/21 10:33:08;;;;;;;49.07;26.80;;;10.00;99.90;;;;;;5054753;28;20230;-48
2023/03/21 10:35:36;;;;;;;34.03;21.53;;;10.00;99.90;;;;;;5047572;28;20203;-55
2023/03/21 10:38:05;;;;;;;35.90;23.30;;;10.10;99.90;;;;;;5045520;28;20281;-52
2023/03/21 10:40:33;;;;;;;34.23;21.83;;;10.10;99.90;;;;;;5040012;28;20203;-48
2023/03/21 10:45:56;;;;;;;42.73;24.10;;;10.10;99.90;;;;;;5077762;27;20615;-54
2023/03/21 10:48:23;;;;;;;37.37;22.73;;;10.20;99.90;;;;;;5066466;28;20205;-48
2023/03/21 10:50:53;;;;;;;30.70;19.93;;;10.20;99.90;;;;;;5067785;28;20202;-52
2023/03/21 10:53:22;;;;;;;29.63;20.43;;;10.20;99.90;;;;;;5067516;28;20285;-50
2023/03/21 10:55:52;;;;;;;24.70;18.97;;;10.20;99.90;;;;;;5064143;28;20241;-50
2023/03/21 10:58:26;;;;;;;26.03;19.50;;;10.20;99.90;;;;;;5079610;28;20201;-50
2023/03/21 11:00:58;;;;;;;33.57;20.13;;;10.20;99.90;;;;;;5070117;28;20205;-50
2023/03/21 11:03:31;;;;;;;26.33;18.70;;;10.20;99.90;;;;;;5064438;28;20222;-55
2023/03/21 11:06:05;;;;;;;26.83;18.50;;;10.20;99.90;;;;;;5070169;28;20952;-53
2023/03/21 11:08:38;;;;;;;38.73;22.80;;;10.20;99.90;;;;;;5076789;28;20204;-54
2023/03/21 11:11:07;;;;;;;30.37;19.23;;;10.30;99.90;;;;;;5067331;28;20213;-48
2023/03/21 11:13:38;;;;;;;36.30;21.07;;;10.30;99.90;;;;;;5071015;28;20827;-55
2023/03/21 11:16:10;;;;;;;27.53;18.13;;;10.20;99.90;;;;;;5072381;28;20225;-50
2023/03/21 11:18:43;;;;;;;25.43;18.83;;;10.20;99.90;;;;;;5060709;28;20210;-58
2023/03/21 11:21:13;;;;;;;26.27;17.03;;;10.20;99.90;;;;;;5069828;28;20273;-53
2023/03/21 11:23:45;;;;;;;27.30;18.80;;;10.30;99.90;;;;;;5072063;28;20205;-56
2023/03/21 11:26:22;;;;;;;34.77;19.80;;;10.20;99.90;;;;;;5066242;28;20859;-48
2023/03/21 11:28:51;;;;;;;30.77;18.57;;;10.20;99.90;;;;;;5069312;28;20958;-51
2023/03/21 11:31:19;;;;;;;28.83;17.57;;;10.20;99.90;;;;;;5070646;28;20287;-47
2023/03/21 11:33:52;;;;;;;28.17;18.13;;;10.20;99.90;;;;;;5053011;28;20271;-49
2023/03/21 11:36:33;;;;;;;34.30;20.90;;;10.20;99.90;;;;;;5069897;28;20233;-49
2023/03/21 11:39:12;;;;;;;28.10;18.73;;;10.20;99.90;;;;;;5072116;28;20202;-49
2023/03/21 11:41:41;;;;;;;29.07;19.57;;;10.30;99.90;;;;;;5062927;28;20212;-55
2023/03/21 11:44:25;;;;;;;29.57;18.37;;;10.30;99.90;;;;;;5068628;28;20229;-52
2023/03/21 11:46:54;;;;;;;32.83;19.87;;;10.30;99.90;;;;;;5058348;28;20226;-48
2023/03/21 11:49:22;;;;;;;35.47;21.53;;;10.40;99.90;;;;;;5062718;28;20190;-56
2023/03/21 11:51:56;;;;;;;29.43;20.50;;;10.50;99.90;;;;;;5062906;28;21162;-51
2023/03/21 11:54:31;;;;;;;29.03;20.47;;;10.50;99.90;;;;;;5075079;28;20561;-56
2023/03/21 11:57:03;;;;;;;45.17;29.23;;;10.50;99.90;;;;;;5060179;28;20232;-50
2023/03/21 11:59:39;;;;;;;39.27;23.43;;;10.50;99.90;;;;;;5055583;28;20206;-56
2023/03/21 12:02:36;;;;;;;31.27;19.30;;;10.50;99.90;;;;;;5060956;28;20282;-50
2023/03/21 12:05:07;;;;;;;24.93;17.80;;;10.50;99.90;;;;;;5057286;28;20617;-48
2023/03/21 12:07:49;;;;;;;26.67;17.77;;;10.40;99.90;;;;;;5039345;28;20223;-51
2023/03/21 12:10:30;;;;;;;43.57;22.03;;;10.40;99.90;;;;;;5060957;28;20282;-53
2023/03/21 12:13:09;;;;;;;32.57;19.03;;;10.40;99.90;;;;;;5056733;28;20206;-49
2023/03/21 12:15:42;;;;;;;28.47;17.60;;;10.40;99.90;;;;;;5055896;28;20278;-48
2023/03/21 12:18:24;;;;;;;34.20;18.77;;;10.30;99.90;;;;;;5058165;28;20203;-52
2023/03/21 12:20:54;;;;;;;34.23;19.13;;;10.40;99.90;;;;;;5060487;28;20195;-52
2023/03/21 12:23:41;;;;;;;35.47;19.47;;;10.40;99.90;;;;;;5038311;28;20213;-55
2023/03/21 12:26:19;;;;;;;31.03;19.00;;;10.50;99.90;;;;;;5060552;28;20301;-47
2023/03/21 12:28:59;;;;;;;36.93;19.37;;;10.60;99.90;;;;;;5052526;28;20331;-47
2023/03/21 12:31:41;;;;;;;24.00;16.60;;;10.60;99.90;;;;;;5058819;28;20202;-55
2023/03/21 12:34:22;;;;;;;24.03;17.33;;;10.60;99.90;;;;;;5058971;28;20198;-51
2023/03/21 12:37:00;;;;;;;23.97;16.53;;;10.60;99.90;;;;;;5060359;28;20210;-51
2023/03/21 12:39:30;;;;;;;23.67;16.87;;;10.60;99.90;;;;;;5040432;28;20206;-54
2023/03/21 12:42:11;;;;;;;24.13;15.97;;;10.60;99.90;;;;;;5058896;28;20269;-52
2023/03/21 12:44:40;;;;;;;21.13;16.03;;;10.60;99.90;;;;;;5053268;28;20221;-48
2023/03/21 12:47:13;;;;;;;22.13;15.63;;;10.60;99.90;;;;;;5058283;28;20230;-49
2023/03/21 12:49:46;;;;;;;23.07;15.03;;;10.60;99.90;;;;;;5053465;28;20207;-52
2023/03/21 12:52:19;;;;;;;21.33;15.17;;;10.50;99.90;;;;;;5061731;28;20199;-55
2023/03/21 12:54:51;;;;;;;18.87;13.27;;;10.50;99.90;;;;;;5040389;28;21742;-51
2023/03/21 12:57:22;;;;;;;19.27;12.53;;;10.60;99.90;;;;;;5062922;28;20214;-56
2023/03/21 12:59:54;;;;;;;22.03;13.87;;;10.50;99.90;;;;;;5053440;28;20288;-48